Time;durP1;ratioP1;P1;durP2;ratioP2;P2;SDS_P1;SDS_P2;PMS_P1;PMS_P2;Temp;Humidity;BMP_temperature;BMP_pressure;BME280_temperature;BME280_humidity;BME280_pressure;Samples;Min_cycle;Max_cycle;Signal;HPM_P1;HPM_P2
2022/03/18 00:01:49;;;;;;;18.50;9.95;;;5.40;99.90;;;;;;4998935;28;20056;-74
2022/03/18 00:04:15;;;;;;;28.23;10.48;;;5.40;99.90;;;;;;4999307;28;20129;-71
2022/03/18 00:06:41;;;;;;;28.98;9.40;;;5.40;99.90;;;;;;4965106;28;20419;-71
2022/03/18 00:09:06;;;;;;;21.67;10.13;;;5.40;99.90;;;;;;4997721;28;20050;-71
2022/03/18 00:11:32;;;;;;;18.35;9.43;;;5.40;99.90;;;;;;4997957;28;20061;-72
2022/03/18 00:13:58;;;;;;;19.88;9.20;;;5.50;99.90;;;;;;4998297;28;20100;-72
2022/03/18 00:16:24;;;;;;;21.48;10.73;;;5.50;99.90;;;;;;4998435;28;20111;-71
2022/03/18 00:18:50;;;;;;;26.45;11.30;;;5.50;99.90;;;;;;4998633;28;20038;-71
2022/03/18 00:21:16;;;;;;;25.38;10.10;;;5.60;99.90;;;;;;4981081;28;20125;-70
2022/03/18 00:23:42;;;;;;;26.15;12.05;;;5.60;99.90;;;;;;4998017;28;20046;-72
2022/03/18 00:26:08;;;;;;;20.50;11.43;;;5.60;99.90;;;;;;4997311;28;20097;-73
2022/03/18 00:28:33;;;;;;;26.17;10.38;;;5.60;99.90;;;;;;4997754;28;20053;-72
2022/03/18 00:30:59;;;;;;;18.35;9.73;;;5.70;99.90;;;;;;4998344;28;20080;-72
2022/03/18 00:33:25;;;;;;;26.42;11.00;;;5.60;99.90;;;;;;4997112;28;20361;-71
2022/03/18 00:35:51;;;;;;;22.50;10.23;;;5.60;99.90;;;;;;4998567;28;20038;-71
2022/03/18 00:38:17;;;;;;;20.67;9.80;;;5.60;99.90;;;;;;4997309;28;20440;-72
2022/03/18 00:40:44;;;;;;;21.45;9.23;;;5.60;99.90;;;;;;4997721;28;20054;-72
2022/03/18 00:43:10;;;;;;;20.58;10.00;;;5.60;99.90;;;;;;4997915;28;20142;-71
2022/03/18 00:45:36;;;;;;;25.08;9.30;;;5.60;99.90;;;;;;4998158;28;20444;-71
2022/03/18 00:53:38;;;;;;;;;;;5.60;99.90;;;;;;4998022;28;20046;-72
2022/03/18 00:56:04;;;;;;;18.73;9.10;;;5.60;99.90;;;;;;4997847;28;19918;-72
2022/03/18 00:58:29;;;;;;;17.08;8.95;;;5.50;99.90;;;;;;4997050;28;20042;-70
2022/03/18 01:00:55;;;;;;;18.42;9.07;;;5.50;99.90;;;;;;5015991;28;20038;-71
2022/03/18 01:03:21;;;;;;;17.77;8.63;;;5.50;99.90;;;;;;5017920;28;20117;-71
2022/03/18 01:05:46;;;;;;;15.57;8.45;;;5.50;99.90;;;;;;5017139;28;20467;-72
2022/03/18 01:08:12;;;;;;;20.80;8.63;;;5.50;99.90;;;;;;5016978;28;20044;-71
2022/03/18 01:10:38;;;;;;;19.70;8.85;;;5.50;99.90;;;;;;5000375;28;20463;-72
2022/03/18 01:13:04;;;;;;;15.13;7.78;;;5.50;99.90;;;;;;4999993;28;20045;-71
2022/03/18 01:15:29;;;;;;;18.83;8.23;;;5.40;99.90;;;;;;5016357;28;20364;-73
2022/03/18 01:17:55;;;;;;;19.08;7.65;;;5.50;99.90;;;;;;5013826;28;20053;-72
2022/03/18 01:20:21;;;;;;;15.65;8.15;;;5.40;99.90;;;;;;4999403;28;20042;-72
2022/03/18 01:22:47;;;;;;;17.02;7.97;;;5.40;99.90;;;;;;4999448;28;20045;-73
2022/03/18 01:25:12;;;;;;;22.70;7.65;;;5.40;99.90;;;;;;5016973;28;20360;-73
2022/03/18 01:27:38;;;;;;;16.25;7.57;;;5.40;99.90;;;;;;5016577;28;20104;-73
2022/03/18 01:30:04;;;;;;;14.77;7.55;;;5.40;99.90;;;;;;5015908;28;20034;-72
2022/03/18 01:32:32;;;;;;;15.50;6.97;;;5.40;99.90;;;;;;5017000;28;20053;-71
2022/03/18 01:34:57;;;;;;;15.68;7.93;;;5.40;99.90;;;;;;5017018;28;20041;-73
2022/03/18 01:37:23;;;;;;;19.13;7.82;;;5.40;99.90;;;;;;5016476;28;20041;-71
2022/03/18 01:39:49;;;;;;;17.38;7.63;;;5.40;99.90;;;;;;5015650;28;20049;-70
2022/03/18 01:42:14;;;;;;;16.98;7.65;;;5.40;99.90;;;;;;5016789;28;20121;-74
2022/03/18 01:44:44;;;;;;;15.38;7.63;;;5.40;99.90;;;;;;5016018;28;20444;-71
2022/03/18 01:47:11;;;;;;;15.32;8.10;;;5.30;99.90;;;;;;5016340;28;20077;-72
2022/03/18 01:49:37;;;;;;;11.98;7.30;;;5.30;99.90;;;;;;5016433;28;20033;-71
2022/03/18 01:52:07;;;;;;;15.18;7.13;;;5.30;99.90;;;;;;4999119;28;20045;-70
2022/03/18 01:54:45;;;;;;;18.70;7.85;;;5.30;99.90;;;;;;5016040;28;20452;-71
2022/03/18 01:57:12;;;;;;;14.93;7.50;;;5.40;99.90;;;;;;5016210;28;20395;-72
2022/03/18 01:59:38;;;;;;;24.15;7.70;;;5.30;99.90;;;;;;5015810;28;20041;-73
2022/03/18 02:02:04;;;;;;;17.25;7.30;;;5.40;99.90;;;;;;5016368;28;20326;-70
2022/03/18 02:04:32;;;;;;;15.13;7.18;;;5.30;99.90;;;;;;5015935;28;20129;-71
2022/03/18 02:06:59;;;;;;;19.15;7.80;;;5.30;99.90;;;;;;5016647;28;20053;-75
2022/03/18 02:09:25;;;;;;;24.50;7.85;;;5.40;99.90;;;;;;5016176;28;20045;-71
2022/03/18 02:11:51;;;;;;;19.17;8.20;;;5.30;99.90;;;;;;5016057;28;20060;-71
2022/03/18 02:14:36;;;;;;;16.55;7.43;;;5.30;99.90;;;;;;4965489;28;20042;-72
2022/03/18 02:17:05;;;;;;;18.17;7.65;;;5.40;99.90;;;;;;5015571;28;20041;-72
2022/03/18 02:19:31;;;;;;;16.25;7.97;;;5.30;99.90;;;;;;5015832;28;20057;-72
2022/03/18 02:21:57;;;;;;;15.70;7.82;;;5.40;99.90;;;;;;5016200;28;20033;-72
2022/03/18 02:24:23;;;;;;;17.80;7.63;;;5.30;99.90;;;;;;5012721;28;20347;-73
2022/03/18 02:26:51;;;;;;;14.30;8.13;;;5.30;99.90;;;;;;5015164;28;20048;-73
2022/03/18 02:29:18;;;;;;;15.73;8.45;;;5.40;99.90;;;;;;5015839;28;20403;-71
2022/03/18 02:31:44;;;;;;;17.40;7.88;;;5.40;99.90;;;;;;5015397;28;20042;-73
2022/03/18 02:34:10;;;;;;;17.85;8.35;;;5.40;99.90;;;;;;4998932;28;20072;-72
2022/03/18 02:36:36;;;;;;;14.25;8.38;;;5.40;99.90;;;;;;4980091;28;20039;-72
2022/03/18 02:39:02;;;;;;;17.95;8.57;;;5.40;99.90;;;;;;4996064;28;20419;-73
2022/03/18 02:41:27;;;;;;;19.80;8.60;;;5.40;99.90;;;;;;4996103;28;20491;-71
2022/03/18 02:43:53;;;;;;;23.08;8.50;;;5.40;99.90;;;;;;4978914;28;20049;-72
2022/03/18 02:46:21;;;;;;;14.82;8.85;;;5.50;99.90;;;;;;4995487;28;20038;-72
2022/03/18 02:48:47;;;;;;;24.58;7.68;;;5.40;99.90;;;;;;4995881;28;20088;-72
2022/03/18 02:51:13;;;;;;;12.93;7.82;;;5.50;99.90;;;;;;5012219;28;20074;-72
2022/03/18 02:53:39;;;;;;;14.63;7.95;;;5.50;99.90;;;;;;5015500;28;20041;-70
2022/03/18 02:56:05;;;;;;;14.95;8.00;;;5.50;99.90;;;;;;4997936;28;20049;-71
2022/03/18 02:58:31;;;;;;;17.80;9.23;;;5.50;99.90;;;;;;5015433;28;20058;-72
2022/03/18 03:00:56;;;;;;;14.48;8.35;;;5.50;99.90;;;;;;5015002;28;20108;-71
2022/03/18 03:03:22;;;;;;;18.75;9.35;;;5.60;99.90;;;;;;5014981;28;20045;-71
2022/03/18 03:08:31;;;;;;;19.53;9.40;;;5.60;99.90;;;;;;5015271;28;20057;-72
2022/03/18 03:10:57;;;;;;;17.52;9.27;;;5.60;99.90;;;;;;5015369;28;20164;-71
2022/03/18 03:13:23;;;;;;;16.67;9.60;;;5.50;99.90;;;;;;5011929;28;20038;-71
2022/03/18 03:15:50;;;;;;;18.90;9.80;;;5.60;99.90;;;;;;5014890;28;20053;-71
2022/03/18 03:18:15;;;;;;;18.10;8.88;;;5.60;99.90;;;;;;4998599;28;20085;-71
2022/03/18 03:20:41;;;;;;;18.13;10.23;;;5.60;99.90;;;;;;4997562;28;20096;-73
2022/03/18 03:23:07;;;;;;;17.92;9.77;;;5.60;99.90;;;;;;4997947;28;20372;-73
2022/03/18 03:25:33;;;;;;;19.80;9.55;;;5.60;99.90;;;;;;5015045;28;20057;-73
2022/03/18 03:27:58;;;;;;;15.02;9.63;;;5.60;99.90;;;;;;4998019;28;20104;-71
2022/03/18 03:30:24;;;;;;;18.98;10.55;;;5.60;99.90;;;;;;4978733;28;20061;-71
2022/03/18 03:32:50;;;;;;;19.42;10.93;;;5.70;99.90;;;;;;4995816;28;20389;-71
2022/03/18 03:35:17;;;;;;;21.50;11.35;;;5.60;99.90;;;;;;4995125;28;20083;-71
2022/03/18 03:37:43;;;;;;;15.77;10.52;;;5.70;99.90;;;;;;4961183;28;20498;-71
2022/03/18 03:40:13;;;;;;;18.85;11.43;;;5.70;99.90;;;;;;4995084;28;20074;-71
2022/03/18 03:42:42;;;;;;;18.05;11.00;;;5.70;99.90;;;;;;5010371;28;20042;-71
2022/03/18 03:45:10;;;;;;;20.52;12.35;;;5.70;99.90;;;;;;5014556;28;20467;-72
2022/03/18 03:47:39;;;;;;;21.75;12.05;;;5.70;99.90;;;;;;5014651;28;20103;-72
2022/03/18 03:50:07;;;;;;;18.85;11.90;;;5.80;99.90;;;;;;5014653;28;20464;-74
2022/03/18 03:52:34;;;;;;;22.60;12.30;;;5.80;99.90;;;;;;5014787;28;20045;-72
2022/03/18 03:55:00;;;;;;;21.45;12.18;;;5.80;99.90;;;;;;5014424;28;20034;-71
2022/03/18 03:57:26;;;;;;;21.65;12.20;;;5.90;99.90;;;;;;5012721;28;20085;-71
2022/03/18 03:59:52;;;;;;;21.08;12.48;;;5.90;99.90;;;;;;4996888;28;20515;-72
2022/03/18 04:02:18;;;;;;;19.92;12.15;;;5.90;99.90;;;;;;5000728;28;20104;-71
2022/03/18 04:04:44;;;;;;;21.20;11.82;;;5.90;99.90;;;;;;4995042;28;20039;-71
2022/03/18 04:07:10;;;;;;;25.10;13.95;;;5.90;99.90;;;;;;4994980;28;20125;-70
2022/03/18 04:09:35;;;;;;;21.85;13.20;;;5.90;99.90;;;;;;4994878;28;20066;-72
2022/03/18 04:12:01;;;;;;;21.30;13.00;;;5.90;99.90;;;;;;4977681;28;20054;-73
2022/03/18 04:14:26;;;;;;;21.55;12.48;;;5.90;99.90;;;;;;4995020;28;20042;-72
2022/03/18 04:16:52;;;;;;;16.33;12.98;;;5.90;99.90;;;;;;5006380;28;20038;-71
2022/03/18 04:19:17;;;;;;;23.52;14.77;;;5.90;99.90;;;;;;5001994;28;20410;-73
2022/03/18 04:21:43;;;;;;;20.75;12.70;;;5.90;99.90;;;;;;5014621;28;20075;-71
2022/03/18 04:24:09;;;;;;;20.05;13.30;;;5.90;99.90;;;;;;5014079;28;20030;-72
2022/03/18 04:26:35;;;;;;;26.85;15.15;;;5.90;99.90;;;;;;5017872;28;20057;-71
2022/03/18 04:29:01;;;;;;;19.73;14.13;;;5.80;99.90;;;;;;5017354;28;20045;-72
2022/03/18 04:31:26;;;;;;;27.05;14.43;;;5.80;99.90;;;;;;5018319;28;20047;-75
2022/03/18 04:33:52;;;;;;;19.98;14.95;;;5.80;99.90;;;;;;5018411;28;20046;-71
2022/03/18 04:36:17;;;;;;;21.42;15.48;;;5.70;99.90;;;;;;5017930;28;20132;-71
2022/03/18 04:38:43;;;;;;;25.40;15.32;;;5.70;99.90;;;;;;5017590;28;20088;-72
2022/03/18 04:41:08;;;;;;;22.85;14.45;;;5.60;99.90;;;;;;5000674;28;20057;-71
2022/03/18 04:43:34;;;;;;;25.83;14.90;;;5.60;99.90;;;;;;5001246;28;20045;-73
2022/03/18 04:46:00;;;;;;;25.25;15.80;;;5.60;99.90;;;;;;4998350;28;20377;-72
2022/03/18 04:48:25;;;;;;;21.38;14.82;;;5.50;99.90;;;;;;4998052;28;20070;-71
2022/03/18 04:50:51;;;;;;;19.98;14.98;;;5.50;99.90;;;;;;4998036;28;20042;-71
2022/03/18 04:53:16;;;;;;;27.83;15.90;;;5.50;99.90;;;;;;4998045;28;20030;-72
2022/03/18 04:55:42;;;;;;;22.38;15.40;;;5.50;99.90;;;;;;4997737;28;20515;-72
2022/03/18 04:58:07;;;;;;;31.90;16.10;;;5.50;99.90;;;;;;4997811;28;20085;-72
2022/03/18 05:00:35;;;;;;;23.60;15.57;;;5.50;99.90;;;;;;4996769;28;20077;-73
2022/03/18 05:03:01;;;;;;;25.02;16.48;;;5.40;99.90;;;;;;4997917;28;20120;-72
2022/03/18 05:05:27;;;;;;;23.55;16.27;;;5.40;99.90;;;;;;4997738;28;20046;-72
2022/03/18 05:07:52;;;;;;;33.28;17.25;;;5.30;99.90;;;;;;4996819;28;20042;-72
2022/03/18 05:10:19;;;;;;;24.83;17.13;;;5.40;99.90;;;;;;4997596;28;20042;-71
2022/03/18 05:12:45;;;;;;;33.15;17.60;;;5.30;99.90;;;;;;4997549;28;20038;-72
2022/03/18 05:15:12;;;;;;;28.75;16.67;;;5.30;99.90;;;;;;4997304;28;20148;-74
2022/03/18 05:17:39;;;;;;;23.98;16.60;;;5.30;99.90;;;;;;4996456;28;20108;-72
2022/03/18 05:20:07;;;;;;;28.95;18.00;;;5.20;99.90;;;;;;4997870;28;20045;-72
2022/03/18 05:22:32;;;;;;;28.15;16.83;;;5.20;99.90;;;;;;4997443;28;20109;-73
2022/03/18 05:24:59;;;;;;;24.73;16.40;;;5.20;99.90;;;;;;4997194;28;20060;-73
2022/03/18 05:27:25;;;;;;;23.90;17.40;;;5.30;99.90;;;;;;4997766;28;20423;-71
2022/03/18 05:29:51;;;;;;;47.15;18.70;;;5.20;99.90;;;;;;4997622;28;20042;-70
2022/03/18 05:32:18;;;;;;;27.15;16.83;;;5.20;99.90;;;;;;4997686;28;20397;-71
2022/03/18 05:34:43;;;;;;;35.53;17.65;;;5.20;99.90;;;;;;4997311;28;20050;-69
2022/03/18 05:37:09;;;;;;;26.85;17.27;;;5.20;99.90;;;;;;4995937;28;20065;-71
2022/03/18 05:39:35;;;;;;;32.53;18.88;;;5.20;99.90;;;;;;4997159;28;20436;-71
2022/03/18 05:42:01;;;;;;;25.90;16.55;;;5.20;99.90;;;;;;4996807;28;20490;-71
2022/03/18 05:44:27;;;;;;;30.63;17.08;;;5.20;99.90;;;;;;4997688;28;20046;-72
2022/03/18 05:46:52;;;;;;;29.15;18.15;;;5.20;99.90;;;;;;4997022;28;20046;-72
2022/03/18 05:49:18;;;;;;;26.55;16.00;;;5.20;99.90;;;;;;4996530;28;20134;-72
2022/03/18 05:51:45;;;;;;;30.50;18.83;;;5.20;99.90;;;;;;4996174;28;20039;-73
2022/03/18 05:54:11;;;;;;;30.00;17.23;;;5.20;99.90;;;;;;4996547;28;20072;-72
2022/03/18 05:56:54;;;;;;;25.88;16.00;;;5.20;99.90;;;;;;4996794;28;20073;-72
2022/03/18 05:59:24;;;;;;;22.98;16.15;;;5.20;99.90;;;;;;4996176;28;20081;-73
2022/03/18 06:01:51;;;;;;;28.40;16.98;;;5.20;99.90;;;;;;4995658;28;20046;-71
2022/03/18 06:04:17;;;;;;;21.60;15.90;;;5.10;99.90;;;;;;4996204;28;20042;-71
2022/03/18 06:06:47;;;;;;;26.98;16.92;;;5.10;99.90;;;;;;4996366;28;20060;-72
2022/03/18 06:11:59;;;;;;;28.52;17.02;;;5.20;99.90;;;;;;4995857;28;20453;-72
2022/03/18 06:14:27;;;;;;;26.38;15.93;;;5.20;99.90;;;;;;4996420;28;20030;-72
2022/03/18 06:16:56;;;;;;;33.03;17.52;;;5.20;99.90;;;;;;4995771;28;20429;-71
2022/03/18 06:19:22;;;;;;;28.15;16.00;;;5.20;99.90;;;;;;4996828;28;20117;-71
2022/03/18 06:21:49;;;;;;;32.17;16.55;;;5.20;99.90;;;;;;4996277;28;20042;-72
2022/03/18 06:24:16;;;;;;;26.27;16.50;;;5.20;99.90;;;;;;4996570;28;20034;-73
2022/03/18 06:26:42;;;;;;;38.67;16.83;;;5.20;99.90;;;;;;4995647;28;20421;-72
2022/03/18 06:29:07;;;;;;;23.52;14.38;;;5.30;99.90;;;;;;4996614;28;20117;-72
2022/03/18 06:31:34;;;;;;;29.88;17.27;;;5.20;99.90;;;;;;4995935;28;20042;-71
2022/03/18 06:34:00;;;;;;;26.45;15.25;;;5.30;99.90;;;;;;4995870;28;20448;-72
2022/03/18 06:36:26;;;;;;;32.28;17.02;;;5.30;99.90;;;;;;4995628;28;20121;-72
2022/03/18 06:38:51;;;;;;;23.27;15.40;;;5.40;99.90;;;;;;4995773;28;20445;-71
2022/03/18 06:41:19;;;;;;;26.50;14.93;;;5.40;99.90;;;;;;4995748;28;20096;-71
2022/03/18 06:43:45;;;;;;;34.83;16.48;;;5.40;99.90;;;;;;4995867;28;20050;-72
2022/03/18 06:46:11;;;;;;;28.30;15.30;;;5.50;99.90;;;;;;4995208;28;20396;-71
2022/03/18 06:48:36;;;;;;;30.33;14.77;;;5.50;99.90;;;;;;4993945;28;20047;-72
2022/03/18 06:51:02;;;;;;;30.98;16.02;;;5.60;99.90;;;;;;4994336;28;20104;-73
2022/03/18 06:53:28;;;;;;;26.73;14.32;;;5.60;99.90;;;;;;4995788;28;20042;-71
2022/03/18 06:55:54;;;;;;;28.10;15.43;;;5.60;99.90;;;;;;4995867;28;20030;-72
2022/03/18 06:58:19;;;;;;;31.35;16.35;;;5.70;99.90;;;;;;4995198;28;20487;-73
2022/03/18 07:00:45;;;;;;;31.08;17.27;;;5.70;99.90;;;;;;4995421;28;20042;-72
2022/03/18 07:03:12;;;;;;;26.13;16.23;;;5.90;99.90;;;;;;4995912;28;20097;-71
2022/03/18 07:05:38;;;;;;;31.42;16.55;;;5.90;99.90;;;;;;4996269;28;20049;-72
2022/03/18 07:08:04;;;;;;;35.97;17.33;;;6.00;99.90;;;;;;4995735;28;20039;-71
2022/03/18 07:10:29;;;;;;;32.08;16.83;;;6.00;99.90;;;;;;4995001;28;20046;-72
2022/03/18 07:12:55;;;;;;;31.02;16.17;;;6.10;99.90;;;;;;4994790;28;20042;-73
2022/03/18 07:15:20;;;;;;;35.65;17.15;;;6.20;99.90;;;;;;4995465;28;20042;-72
2022/03/18 07:17:55;;;;;;;35.75;15.23;;;6.20;99.90;;;;;;4995488;28;20042;-72
2022/03/18 07:20:28;;;;;;;32.65;16.08;;;6.30;99.90;;;;;;4995901;28;20048;-72
2022/03/18 07:23:00;;;;;;;32.40;15.35;;;6.40;99.90;;;;;;4995340;28;20065;-72
2022/03/18 07:25:26;;;;;;;33.60;15.27;;;6.50;99.90;;;;;;4995529;28;20042;-72
2022/03/18 07:27:52;;;;;;;39.78;17.27;;;6.60;99.90;;;;;;4993742;28;20532;-72
2022/03/18 07:30:18;;;;;;;42.83;17.00;;;6.60;99.90;;;;;;4995277;28;20060;-71
2022/03/18 07:32:43;;;;;;;36.33;16.73;;;6.70;99.90;;;;;;4995262;28;20053;-72
2022/03/18 07:35:10;;;;;;;34.38;17.52;;;6.70;99.90;;;;;;4995408;28;20042;-71
2022/03/18 07:37:36;;;;;;;35.47;14.55;;;6.80;99.90;;;;;;4995281;28;20038;-70
2022/03/18 07:40:03;;;;;;;43.03;18.60;;;6.80;99.90;;;;;;4994392;28;20457;-71
2022/03/18 07:42:40;;;;;;;39.33;15.52;;;6.90;99.90;;;;;;4995047;28;20053;-73
2022/03/18 07:45:06;;;;;;;36.45;15.27;;;6.90;99.90;;;;;;4994902;28;20042;-72
2022/03/18 07:47:31;;;;;;;37.67;14.10;;;7.00;99.90;;;;;;4995105;28;20104;-72
2022/03/18 07:49:57;;;;;;;35.58;15.82;;;7.20;99.90;;;;;;4995042;28;20072;-73
2022/03/18 07:52:22;;;;;;;42.22;15.07;;;7.20;99.90;;;;;;4994656;28;20117;-72
2022/03/18 07:54:48;;;;;;;34.33;15.63;;;7.30;99.90;;;;;;4994175;28;20054;-72
2022/03/18 07:57:13;;;;;;;41.00;15.70;;;7.40;99.90;;;;;;4995094;28;20038;-71
2022/03/18 07:59:39;;;;;;;30.23;13.38;;;7.40;99.90;;;;;;4993808;28;20065;-72
2022/03/18 08:02:04;;;;;;;36.88;14.63;;;7.50;99.90;;;;;;4998531;28;20046;-73
2022/03/18 08:04:30;;;;;;;29.98;14.80;;;7.40;99.90;;;;;;4998768;28;20345;-72
2022/03/18 08:06:56;;;;;;;39.22;14.80;;;7.50;99.90;;;;;;4998916;28;20108;-72
2022/03/18 08:09:22;;;;;;;34.40;14.13;;;7.60;99.90;;;;;;4992396;28;20039;-73
2022/03/18 08:11:47;;;;;;;37.92;14.27;;;7.60;99.90;;;;;;4987934;28;20039;-71
2022/03/18 08:14:13;;;;;;;35.20;14.18;;;7.60;99.90;;;;;;4988642;28;20043;-71
2022/03/18 08:16:38;;;;;;;37.90;13.98;;;7.70;99.90;;;;;;4987426;28;20035;-72
2022/03/18 08:19:05;;;;;;;38.10;15.02;;;7.70;99.90;;;;;;4993631;28;20030;-73
2022/03/18 08:21:32;;;;;;;37.88;13.15;;;7.80;99.90;;;;;;4989970;28;20452;-72
2022/03/18 08:23:58;;;;;;;34.90;13.55;;;7.90;99.90;;;;;;4990001;28;20109;-73
2022/03/18 08:26:24;;;;;;;32.80;15.23;;;7.90;99.90;;;;;;4988325;28;20038;-73
2022/03/18 08:28:49;;;;;;;32.28;12.93;;;8.00;99.90;;;;;;4998082;28;20385;-72
2022/03/18 08:31:15;;;;;;;35.10;12.32;;;8.00;99.90;;;;;;4998772;28;20053;-70
2022/03/18 08:33:40;;;;;;;33.05;11.23;;;8.00;99.90;;;;;;4996957;28;20492;-71
2022/03/18 08:36:06;;;;;;;27.65;9.82;;;8.10;99.90;;;;;;4997326;28;20042;-70
2022/03/18 08:38:32;;;;;;;24.45;11.45;;;8.20;99.90;;;;;;4998320;28;20042;-71
2022/03/18 08:40:57;;;;;;;25.65;10.52;;;8.30;99.90;;;;;;4997538;28;20141;-71
2022/03/18 08:43:23;;;;;;;34.35;12.20;;;8.40;99.90;;;;;;4994547;28;20432;-75
2022/03/18 08:45:49;;;;;;;30.38;11.07;;;8.40;99.90;;;;;;4997995;28;20042;-72
2022/03/18 08:48:15;;;;;;;30.70;11.75;;;8.50;99.90;;;;;;4997839;28;20042;-73
2022/03/18 08:50:40;;;;;;;29.80;10.20;;;8.60;99.90;;;;;;4994161;28;20049;-73
2022/03/18 08:53:09;;;;;;;29.92;11.30;;;8.60;99.90;;;;;;4995560;28;20035;-72
2022/03/18 08:55:35;;;;;;;26.83;9.85;;;8.70;99.90;;;;;;4987249;28;20057;-72
2022/03/18 08:58:01;;;;;;;31.45;9.60;;;8.70;99.90;;;;;;4980320;28;20064;-71
2022/03/18 09:00:29;;;;;;;31.40;9.82;;;8.70;99.90;;;;;;4998738;28;20435;-70
2022/03/18 09:02:54;;;;;;;26.60;8.40;;;8.70;99.90;;;;;;5017291;28;20080;-70
2022/03/18 09:05:20;;;;;;;33.65;9.50;;;8.80;99.90;;;;;;5000218;28;20071;-73
2022/03/18 09:07:46;;;;;;;29.80;10.23;;;8.90;99.90;;;;;;5016733;28;20045;-71
2022/03/18 09:10:12;;;;;;;24.88;8.60;;;8.90;99.90;;;;;;4997457;28;20104;-72
2022/03/18 09:12:55;;;;;;;22.20;9.32;;;9.00;99.90;;;;;;4996577;28;20038;-72
2022/03/18 09:15:21;;;;;;;28.08;8.48;;;9.10;99.90;;;;;;4997436;28;20050;-71
2022/03/18 09:17:46;;;;;;;29.23;8.77;;;9.10;99.90;;;;;;4998105;28;20542;-71
2022/03/18 09:20:12;;;;;;;28.20;8.95;;;9.20;99.90;;;;;;5016966;28;20045;-73
2022/03/18 09:22:38;;;;;;;26.33;8.43;;;9.20;99.90;;;;;;4999645;28;20125;-71
2022/03/18 09:25:04;;;;;;;24.40;8.00;;;9.20;99.90;;;;;;4999929;28;20108;-73
2022/03/18 09:27:30;;;;;;;29.73;10.88;;;9.30;99.90;;;;;;5016286;28;20056;-71
2022/03/18 09:29:57;;;;;;;25.08;8.50;;;9.30;99.90;;;;;;5016605;28;20042;-74
2022/03/18 09:32:23;;;;;;;27.55;9.65;;;9.30;99.90;;;;;;5016849;28;20336;-72
2022/03/18 09:34:48;;;;;;;24.00;9.13;;;9.30;99.90;;;;;;5016237;28;20039;-72
2022/03/18 09:37:14;;;;;;;27.15;8.73;;;9.40;99.90;;;;;;4999229;28;20407;-73
2022/03/18 09:39:39;;;;;;;27.40;8.57;;;9.40;99.90;;;;;;5016409;28;20480;-74
2022/03/18 09:42:05;;;;;;;25.55;8.30;;;9.40;99.90;;;;;;5029148;28;20470;-71
2022/03/18 09:44:36;;;;;;;28.15;8.55;;;9.50;99.90;;;;;;5029303;28;20034;-70
2022/03/18 09:47:03;;;;;;;27.92;8.57;;;9.50;99.90;;;;;;5013735;28;20056;-72
2022/03/18 09:49:29;;;;;;;30.70;8.25;;;9.60;99.90;;;;;;5035174;28;20075;-71
2022/03/18 09:51:56;;;;;;;25.42;8.52;;;9.60;99.90;;;;;;5021675;28;20054;-72
2022/03/18 09:54:21;;;;;;;25.40;9.77;;;9.70;99.90;;;;;;5016280;28;20041;-72
2022/03/18 09:56:48;;;;;;;22.55;8.18;;;9.80;99.90;;;;;;5015985;28;20064;-72
2022/03/18 09:59:15;;;;;;;27.33;9.15;;;9.80;99.90;;;;;;4998786;28;20480;-74
2022/03/18 10:01:40;;;;;;;32.13;9.05;;;9.80;99.90;;;;;;4998914;28;20500;-72
2022/03/18 10:04:12;;;;;;;28.10;9.73;;;9.90;99.90;;;;;;5008767;28;20034;-73
2022/03/18 10:06:42;;;;;;;23.60;8.00;;;9.90;99.90;;;;;;4999577;28;20070;-73
2022/03/18 10:09:08;;;;;;;25.98;8.88;;;10.00;99.90;;;;;;4997005;28;20452;-71
2022/03/18 10:11:40;;;;;;;27.60;8.55;;;10.00;99.90;;;;;;5005455;28;20042;-71
2022/03/18 10:14:20;;;;;;;22.77;7.78;;;10.00;99.90;;;;;;5015772;28;20057;-74
2022/03/18 10:16:54;;;;;;;29.70;8.05;;;10.10;99.90;;;;;;5015590;28;20037;-73
2022/03/18 10:19:22;;;;;;;26.20;7.65;;;10.10;99.90;;;;;;5008842;28;20405;-71
2022/03/18 10:22:02;;;;;;;27.40;7.85;;;10.20;99.90;;;;;;5015052;28;20045;-71
2022/03/18 10:24:38;;;;;;;26.50;8.18;;;10.20;99.90;;;;;;5003893;28;20460;-70
2022/03/18 10:27:20;;;;;;;26.63;7.72;;;10.20;99.90;;;;;;5008062;28;20038;-73
2022/03/18 10:29:54;;;;;;;16.15;7.63;;;10.30;99.90;;;;;;5014405;28;20077;-73
2022/03/18 10:32:22;;;;;;;24.10;7.95;;;10.30;99.90;;;;;;4997904;28;20034;-72
2022/03/18 10:37:50;;;;;;;19.98;7.65;;;10.30;99.90;;;;;;5010842;28;20054;-72
2022/03/18 10:40:19;;;;;;;22.52;8.00;;;10.30;99.90;;;;;;4987516;28;20069;-71
2022/03/18 10:43:02;;;;;;;27.08;7.97;;;10.30;99.90;;;;;;4967407;28;20042;-72
2022/03/18 10:45:28;;;;;;;23.65;7.50;;;10.40;99.90;;;;;;4995512;28;20045;-72
2022/03/18 10:47:54;;;;;;;19.45;6.72;;;10.50;99.90;;;;;;5015162;28;20336;-72
2022/03/18 10:50:29;;;;;;;21.20;7.25;;;10.50;99.90;;;;;;5010406;28;20115;-73
2022/03/18 10:52:57;;;;;;;25.35;7.47;;;10.60;99.90;;;;;;5011742;28;20037;-72
2022/03/18 10:55:43;;;;;;;19.60;7.45;;;10.70;99.90;;;;;;5014794;28;20046;-75
2022/03/18 10:58:15;;;;;;;29.48;8.13;;;10.70;99.90;;;;;;5020890;28;20049;-77
2022/03/18 11:00:45;;;;;;;25.42;7.25;;;10.80;99.90;;;;;;5019108;28;20356;-74
2022/03/18 11:03:12;;;;;;;20.52;7.45;;;10.80;99.90;;;;;;5014893;28;20456;-73
2022/03/18 11:05:47;;;;;;;20.17;7.13;;;10.80;99.90;;;;;;5014782;28;20057;-72
2022/03/18 11:08:17;;;;;;;23.05;6.70;;;10.90;99.90;;;;;;5014548;28;20444;-73
2022/03/18 11:13:46;;;;;;;26.38;8.18;;;11.00;99.90;;;;;;5014187;28;20081;-72
2022/03/18 11:16:12;;;;;;;25.75;7.55;;;11.10;99.90;;;;;;5014936;28;20061;-74
2022/03/18 11:18:39;;;;;;;22.38;7.65;;;11.20;99.90;;;;;;5015235;28;20121;-73
2022/03/18 11:21:06;;;;;;;23.88;7.00;;;11.20;99.90;;;;;;5015299;28;20356;-73
2022/03/18 11:23:34;;;;;;;20.60;7.05;;;11.30;99.90;;;;;;4997657;28;20064;-72
2022/03/18 11:26:00;;;;;;;26.35;9.05;;;11.30;99.90;;;;;;5014468;28;20099;-71
2022/03/18 11:28:26;;;;;;;27.95;7.18;;;11.40;99.90;;;;;;5014814;28;20073;-74
2022/03/18 11:31:07;;;;;;;22.73;6.85;;;11.40;99.90;;;;;;4998045;28;20076;-73
2022/03/18 11:33:34;;;;;;;19.50;6.85;;;11.50;99.90;;;;;;5014934;28;20124;-73
2022/03/18 11:36:08;;;;;;;21.50;6.95;;;11.50;99.90;;;;;;5019502;28;20117;-73
2022/03/18 11:38:54;;;;;;;25.35;7.85;;;11.60;99.90;;;;;;5021383;28;20329;-73
2022/03/18 11:41:20;;;;;;;19.95;5.97;;;11.70;99.90;;;;;;5021441;28;20348;-73
2022/03/18 11:43:45;;;;;;;18.90;7.15;;;11.80;99.90;;;;;;5021497;28;20040;-73
2022/03/18 11:46:17;;;;;;;25.58;7.25;;;11.80;99.90;;;;;;5021425;28;20360;-73
2022/03/18 11:48:52;;;;;;;22.02;8.48;;;11.90;99.90;;;;;;5020893;28;20055;-73
2022/03/18 11:51:31;;;;;;;22.95;7.22;;;11.90;99.90;;;;;;5021161;28;20112;-75
2022/03/18 11:54:02;;;;;;;32.15;7.90;;;12.00;99.90;;;;;;5021253;28;20041;-72
2022/03/18 11:56:39;;;;;;;22.83;7.18;;;12.00;99.90;;;;;;5020845;28;20488;-74
2022/03/18 11:59:24;;;;;;;22.40;7.20;;;12.10;99.90;;;;;;5021039;28;20482;-71
2022/03/18 12:01:56;;;;;;;22.00;6.30;;;12.30;99.90;;;;;;5021153;28;20440;-71
2022/03/18 12:04:34;;;;;;;26.15;7.05;;;12.30;99.90;;;;;;5021028;28;20128;-71
2022/03/18 12:07:12;;;;;;;33.50;8.32;;;12.40;99.90;;;;;;5021363;28;20103;-72
2022/03/18 12:10:18;;;;;;;24.85;6.85;;;12.40;99.90;;;;;;5020812;28;20414;-69
2022/03/18 12:12:46;;;;;;;21.67;7.10;;;12.40;99.90;;;;;;4978961;28;20062;-72
2022/03/18 12:15:17;;;;;;;27.08;6.85;;;12.40;99.90;;;;;;4965135;28;20046;-71
2022/03/18 12:17:51;;;;;;;27.55;8.48;;;12.50;99.90;;;;;;5019458;28;20045;-72
2022/03/18 12:20:19;;;;;;;20.45;6.50;;;12.60;99.90;;;;;;5020984;28;20046;-70
2022/03/18 12:22:46;;;;;;;26.65;8.10;;;12.50;99.90;;;;;;5021354;28;20038;-72
2022/03/18 12:25:12;;;;;;;23.52;6.88;;;12.60;99.90;;;;;;5003819;28;20045;-71
2022/03/18 12:27:40;;;;;;;30.92;8.13;;;12.60;99.90;;;;;;5020861;28;20106;-73
2022/03/18 12:30:08;;;;;;;23.52;7.40;;;12.60;99.90;;;;;;5001528;28;20049;-70
2022/03/18 12:32:37;;;;;;;22.15;6.90;;;12.70;99.90;;;;;;5000600;28;20100;-70
2022/03/18 12:35:04;;;;;;;19.05;6.50;;;12.70;99.90;;;;;;4984070;28;20352;-71
2022/03/18 12:37:32;;;;;;;20.33;6.47;;;12.80;99.90;;;;;;5001587;28;20034;-71
2022/03/18 12:40:15;;;;;;;21.50;6.35;;;12.80;99.90;;;;;;5000934;28;20034;-70
2022/03/18 12:42:49;;;;;;;19.55;6.93;;;12.80;99.90;;;;;;5000030;28;20461;-72
2022/03/18 12:45:29;;;;;;;18.83;6.15;;;12.80;99.90;;;;;;4999110;28;20112;-72
2022/03/18 12:48:04;;;;;;;21.30;6.53;;;12.90;99.90;;;;;;5002261;28;20162;-72
2022/03/18 12:50:33;;;;;;;16.65;6.50;;;13.00;99.90;;;;;;4978664;28;20046;-71
2022/03/18 12:53:09;;;;;;;23.50;6.63;;;13.10;99.90;;;;;;4978600;28;20070;-72
2022/03/18 12:55:34;;;;;;;20.25;6.28;;;13.30;99.90;;;;;;4978357;28;20112;-72
2022/03/18 12:58:01;;;;;;;23.05;5.80;;;13.20;99.90;;;;;;4982655;28;20062;-72
2022/03/18 13:00:28;;;;;;;22.92;6.75;;;13.30;99.90;;;;;;5012965;28;20405;-70